createdAt,value
2022-11-12T00:02:37.487Z,9.86
2022-11-12T00:05:23.788Z,9.80
2022-11-12T00:08:09.952Z,9.76
2022-11-12T00:10:56.536Z,9.79
2022-11-12T00:13:42.749Z,9.84
2022-11-12T00:16:28.966Z,9.78
2022-11-12T00:19:15.678Z,9.65
2022-11-12T00:22:02.030Z,9.58
2022-11-12T00:24:48.536Z,9.55
2022-11-12T00:27:35.660Z,9.57
2022-11-12T00:30:23.266Z,9.50
2022-11-12T00:33:09.534Z,9.48
2022-11-12T00:36:00.836Z,9.49
2022-11-12T00:38:47.278Z,9.40
2022-11-12T00:41:33.540Z,9.45
2022-11-12T00:44:19.818Z,9.43
2022-11-12T00:47:06.680Z,9.41
2022-11-12T00:49:53.322Z,9.39
2022-11-12T00:52:39.744Z,9.41
2022-11-12T00:55:26.406Z,9.52
2022-11-12T00:58:12.495Z,9.46
2022-11-12T01:01:04.338Z,9.58
2022-11-12T01:03:51.209Z,9.58
2022-11-12T01:06:41.281Z,9.53
2022-11-12T01:09:27.842Z,9.56
2022-11-12T01:12:14.146Z,9.57
2022-11-12T01:15:00.584Z,9.48
2022-11-12T01:17:46.950Z,9.43
2022-11-12T01:20:33.145Z,9.43
2022-11-12T01:23:19.707Z,9.43
2022-11-12T01:26:11.279Z,9.44
2022-11-12T01:28:58.208Z,9.38
2022-11-12T01:31:44.719Z,9.49
2022-11-12T01:34:30.988Z,9.41
2022-11-12T01:37:17.224Z,9.47
2022-11-12T01:40:04.272Z,9.44
2022-11-12T01:42:54.054Z,9.47
2022-11-12T01:45:46.116Z,9.43
2022-11-12T01:48:38.395Z,9.47
2022-11-12T01:51:31.775Z,9.37
2022-11-12T01:54:21.471Z,9.39
2022-11-12T01:57:10.830Z,9.31
2022-11-12T02:00:02.495Z,9.34
2022-11-12T02:02:55.671Z,9.34
2022-11-12T02:05:42.847Z,9.21
2022-11-12T02:08:31.003Z,9.20
2022-11-12T02:11:20.184Z,9.17
2022-11-12T02:14:07.156Z,9.17
2022-11-12T02:16:54.106Z,9.10
2022-11-12T02:19:40.344Z,9.06
2022-11-12T02:22:26.641Z,9.09
2022-11-12T02:25:17.502Z,9.02
2022-11-12T02:28:07.266Z,9.08
2022-11-12T02:30:53.811Z,9.04
2022-11-12T02:33:40.360Z,8.96
2022-11-12T02:36:27.493Z,8.99
2022-11-12T02:39:13.621Z,8.87
2022-11-12T02:42:00.000Z,8.90
2022-11-12T02:44:46.503Z,8.97
2022-11-12T02:47:32.591Z,8.92
2022-11-12T02:50:19.643Z,8.88
2022-11-12T02:53:05.958Z,8.88
2022-11-12T02:55:52.478Z,8.87
2022-11-12T02:58:38.799Z,8.78
2022-11-12T03:01:25.156Z,8.77
2022-11-12T03:04:11.304Z,8.78
2022-11-12T03:06:57.915Z,8.83
2022-11-12T03:09:44.095Z,8.64
2022-11-12T03:12:32.156Z,8.63
2022-11-12T03:15:20.332Z,8.79
2022-11-12T03:18:06.914Z,8.78
2022-11-12T03:20:53.385Z,8.84
2022-11-12T03:23:39.580Z,8.89
2022-11-12T03:26:27.339Z,8.85
2022-11-12T03:29:14.807Z,8.90
2022-11-12T03:32:01.063Z,8.91
2022-11-12T03:34:49.614Z,9.06
2022-11-12T03:37:38.522Z,9.00
2022-11-12T03:40:25.297Z,9.01
2022-11-12T03:43:13.954Z,9.00
2022-11-12T03:46:00.370Z,9.20
2022-11-12T03:48:46.578Z,9.11
2022-11-12T03:51:33.308Z,9.27
2022-11-12T03:54:20.308Z,9.18
2022-11-12T03:57:06.811Z,9.15
2022-11-12T03:59:53.071Z,9.17
2022-11-12T04:02:39.708Z,8.99
2022-11-12T04:05:45.667Z,8.98
2022-11-12T04:08:38.118Z,8.96
2022-11-12T04:11:24.453Z,8.87
2022-11-12T04:14:10.771Z,8.97
2022-11-12T04:17:15.741Z,8.95
2022-11-12T04:20:20.843Z,9.04
2022-11-12T04:23:07.256Z,9.06
2022-11-12T04:26:12.262Z,9.01
2022-11-12T04:29:17.032Z,9.16
2022-11-12T04:32:03.404Z,8.90
2022-11-12T04:34:49.766Z,8.83
2022-11-12T04:37:46.465Z,8.77
2022-11-12T04:40:51.617Z,8.79
2022-11-12T04:43:56.855Z,8.73
2022-11-12T04:46:43.094Z,8.76
2022-11-12T04:49:29.031Z,8.68
2022-11-12T04:52:15.563Z,8.78
2022-11-12T04:55:02.347Z,8.76
2022-11-12T04:57:48.694Z,8.76
2022-11-12T05:00:35.090Z,8.74
2022-11-12T05:03:21.503Z,8.78
2022-11-12T05:06:26.574Z,8.74
2022-11-12T05:09:12.802Z,8.79
2022-11-12T05:11:59.224Z,8.87
2022-11-12T05:14:45.710Z,8.86
2022-11-12T05:17:31.884Z,8.74
2022-11-12T05:20:18.436Z,8.70
2022-11-12T05:23:07.393Z,8.65
2022-11-12T05:25:53.817Z,8.63
2022-11-12T05:28:40.006Z,8.78
2022-11-12T05:31:26.379Z,8.88
2022-11-12T05:34:14.836Z,8.72
2022-11-12T05:37:05.179Z,8.73
2022-11-12T05:39:51.672Z,8.67
2022-11-12T05:42:38.028Z,8.63
2022-11-12T05:45:24.482Z,8.64
2022-11-12T05:48:11.103Z,8.72
2022-11-12T05:51:12.590Z,8.65
2022-11-12T05:53:59.945Z,8.80
2022-11-12T05:56:46.834Z,8.86
2022-11-12T05:59:33.464Z,8.90
2022-11-12T06:02:19.719Z,8.96
2022-11-12T06:05:06.477Z,8.96
2022-11-12T06:07:52.728Z,8.98
2022-11-12T06:10:38.893Z,8.97
2022-11-12T06:13:25.872Z,9.03
2022-11-12T06:16:12.836Z,9.04
2022-11-12T06:18:59.616Z,9.00
2022-11-12T06:21:46.132Z,9.05
2022-11-12T06:24:35.401Z,9.20
2022-11-12T06:27:24.143Z,9.20
2022-11-12T06:30:11.170Z,9.33
2022-11-12T06:32:57.646Z,9.40
2022-11-12T06:35:43.915Z,9.46
2022-11-12T06:38:34.272Z,9.47
2022-11-12T06:41:20.536Z,9.44
2022-11-12T06:44:06.966Z,9.48
2022-11-12T06:46:53.263Z,9.48
2022-11-12T06:49:39.512Z,9.52
2022-11-12T06:52:26.079Z,9.49
2022-11-12T06:55:12.466Z,9.45
2022-11-12T06:57:59.225Z,9.39
2022-11-12T07:00:45.588Z,9.43
2022-11-12T07:03:32.157Z,9.63
2022-11-12T07:06:20.457Z,9.63
2022-11-12T07:09:06.904Z,9.71
2022-11-12T07:11:53.192Z,9.80
2022-11-12T07:14:39.300Z,9.88
2022-11-12T07:17:26.102Z,9.87
2022-11-12T07:20:12.706Z,9.88
2022-11-12T07:23:02.323Z,9.96
2022-11-12T07:25:56.775Z,10.16
2022-11-12T07:28:43.608Z,10.16
2022-11-12T07:31:30.165Z,10.33
2022-11-12T07:34:16.331Z,10.44
2022-11-12T07:37:02.674Z,10.44
2022-11-12T07:39:49.259Z,10.54
2022-11-12T07:42:35.992Z,10.80
2022-11-12T07:45:23.633Z,10.80
2022-11-12T07:48:10.069Z,10.87
2022-11-12T07:51:29.545Z,10.62
2022-11-12T07:54:16.079Z,10.66
2022-11-12T07:57:02.344Z,10.50
2022-11-12T07:59:48.989Z,10.61
2022-11-12T08:02:35.648Z,10.72
2022-11-12T08:05:22.092Z,10.81
2022-11-12T08:08:08.519Z,10.79
2022-11-12T08:10:59.417Z,11.10
2022-11-12T08:13:45.949Z,11.11
2022-11-12T08:16:32.945Z,11.34
2022-11-12T08:19:19.629Z,11.40
2022-11-12T08:22:06.252Z,11.35
2022-11-12T08:24:52.560Z,11.49
2022-11-12T08:27:42.450Z,11.59
2022-11-12T08:30:31.172Z,11.56
2022-11-12T09:03:55.837Z,12.40
2022-11-12T09:06:43.014Z,12.33
2022-11-12T09:09:29.162Z,12.31
2022-11-12T09:12:20.149Z,12.29
2022-11-12T09:15:36.356Z,12.63
2022-11-12T09:18:18.338Z,12.72
2022-11-12T09:21:07.844Z,12.89
2022-11-12T09:23:54.118Z,13.02
2022-11-12T09:26:40.872Z,13.07
2022-11-12T09:29:27.243Z,13.19
2022-11-12T09:32:14.205Z,13.27
2022-11-12T09:35:00.512Z,13.52
2022-11-12T09:37:47.668Z,13.28
2022-11-12T09:40:52.156Z,13.18
2022-11-12T09:43:52.312Z,13.34
2022-11-12T09:46:51.100Z,13.60
2022-11-12T09:50:05.868Z,14.02
2022-11-12T09:53:00.853Z,13.73
2022-11-12T09:55:53.693Z,13.69
2022-11-12T09:58:40.387Z,13.32
2022-11-12T10:01:34.696Z,13.73
2022-11-12T10:04:57.449Z,13.75
2022-11-12T10:07:44.499Z,13.86
2022-11-12T10:11:15.773Z,14.03
2022-11-12T10:14:18.558Z,14.39
2022-11-12T10:17:09.010Z,14.36
2022-11-12T10:20:17.587Z,14.45
2022-11-12T10:23:21.134Z,14.36
2022-11-12T10:26:16.002Z,14.37
2022-11-12T10:29:11.613Z,14.68
2022-11-12T10:32:00.846Z,15.02
2022-11-12T10:34:47.072Z,15.14
2022-11-12T10:37:52.331Z,14.96
2022-11-12T10:40:42.834Z,14.64
2022-11-12T10:43:29.452Z,15.08
2022-11-12T10:46:23.559Z,15.42
2022-11-12T10:49:17.839Z,14.97
2022-11-12T10:52:05.052Z,15.00
2022-11-12T10:55:16.791Z,14.99
2022-11-12T10:58:23.508Z,15.24
2022-11-12T11:01:22.255Z,15.31
2022-11-12T11:04:30.781Z,15.58
2022-11-12T11:07:27.418Z,15.56
2022-11-12T11:10:39.932Z,15.53
2022-11-12T11:13:29.248Z,15.62
2022-11-12T11:16:25.808Z,15.84
2022-11-12T11:19:12.931Z,16.04
2022-11-12T11:22:28.563Z,16.02
2022-11-12T11:26:03.906Z,16.05
2022-11-12T11:29:10.846Z,15.78
2022-11-12T11:32:19.505Z,15.99
2022-11-12T11:35:31.120Z,16.15
2022-11-12T11:38:39.454Z,16.12
2022-11-12T11:41:54.582Z,16.31
2022-11-12T11:45:20.614Z,16.42
2022-11-12T11:48:19.072Z,16.41
2022-11-12T11:51:11.195Z,16.47
2022-11-12T11:54:24.941Z,16.17
2022-11-12T11:57:21.890Z,16.23
2022-11-12T12:00:24.011Z,16.51
2022-11-12T12:03:22.586Z,16.27
2022-11-12T12:06:24.135Z,16.25
2022-11-12T12:09:19.898Z,16.12
2022-11-12T12:12:27.659Z,15.94
2022-11-12T12:15:49.384Z,16.27
2022-11-12T12:18:55.304Z,16.18
2022-11-12T12:21:49.013Z,16.05
2022-11-12T12:24:50.144Z,16.21
2022-11-12T12:30:56.126Z,15.82
2022-11-12T12:34:21.769Z,15.72
2022-11-12T12:37:37.479Z,15.56
2022-11-12T12:50:16.121Z,15.93
2022-11-12T12:53:03.496Z,15.76
2022-11-12T12:58:53.243Z,15.22
2022-11-12T13:01:41.509Z,15.23
2022-11-12T13:04:52.178Z,14.85
2022-11-12T13:07:48.486Z,14.97
2022-11-12T13:10:50.282Z,15.08
2022-11-12T13:16:52.535Z,15.27
2022-11-12T13:19:42.621Z,15.29
2022-11-12T13:22:42.195Z,14.88
2022-11-12T13:25:34.886Z,14.57
2022-11-12T13:28:22.717Z,14.61
2022-11-12T13:31:28.110Z,14.32
2022-11-12T13:34:21.901Z,14.62
2022-11-12T13:37:20.568Z,14.46
2022-11-12T13:40:16.506Z,14.72
2022-11-12T13:43:10.206Z,14.52
2022-11-12T13:46:26.658Z,14.63
2022-11-12T13:49:16.506Z,14.45
2022-11-12T13:52:08.742Z,14.44
2022-11-12T13:55:14.631Z,14.52
2022-11-12T13:58:02.465Z,14.48
2022-11-12T14:00:56.012Z,14.73
2022-11-12T14:03:50.150Z,14.80
2022-11-12T14:06:46.951Z,14.80
2022-11-12T14:09:35.809Z,14.55
2022-11-12T14:12:29.459Z,14.61
2022-11-12T14:15:54.358Z,14.69
2022-11-12T14:18:57.213Z,14.39
2022-11-12T14:21:44.076Z,14.41
2022-11-12T14:24:33.353Z,14.45
2022-11-12T14:27:34.403Z,14.49
2022-11-12T14:30:22.661Z,14.46
2022-11-12T14:33:11.207Z,14.62
2022-11-12T14:36:02.499Z,14.68
2022-11-12T14:39:00.078Z,14.71
2022-11-12T14:41:49.336Z,14.41
2022-11-12T14:44:37.354Z,14.60
2022-11-12T14:47:24.419Z,14.49
2022-11-12T14:50:19.595Z,14.36
2022-11-12T14:53:29.376Z,14.45
2022-11-12T14:56:42.974Z,14.09
2022-11-12T14:59:31.075Z,14.33
2022-11-12T15:02:48.876Z,14.26
2022-11-12T15:06:07.832Z,14.13
2022-11-12T15:08:59.048Z,14.11
2022-11-12T15:11:48.958Z,14.18
2022-11-12T15:14:35.874Z,14.24
2022-11-12T15:17:37.339Z,14.16
2022-11-12T15:20:23.426Z,14.01
2022-11-12T15:23:19.241Z,14.18
2022-11-12T15:26:14.318Z,13.90
2022-11-12T15:29:29.485Z,13.95
2022-11-12T15:32:15.764Z,13.97
2022-11-12T15:35:02.242Z,13.83
2022-11-12T15:37:48.761Z,13.77
2022-11-12T15:40:43.478Z,13.62
2022-11-12T15:43:33.477Z,13.73
2022-11-12T15:46:19.945Z,13.60
2022-11-12T15:49:13.708Z,13.75
2022-11-12T15:51:59.706Z,13.69
2022-11-12T15:54:46.701Z,13.64
2022-11-12T15:57:41.392Z,13.53
2022-11-12T16:00:33.844Z,13.42
2022-11-12T16:03:22.121Z,13.27
2022-11-12T16:06:11.935Z,13.33
2022-11-12T16:08:58.657Z,13.26
2022-11-12T16:11:45.361Z,13.22
2022-11-12T16:14:31.874Z,13.15
2022-11-12T16:17:19.245Z,13.12
2022-11-12T16:20:26.895Z,13.07
2022-11-12T16:23:13.900Z,13.10
2022-11-12T16:26:01.569Z,13.11
2022-11-12T16:28:47.741Z,13.06
2022-11-12T16:31:34.191Z,13.19
2022-11-12T16:34:20.917Z,13.20
2022-11-12T16:37:12.130Z,13.26
2022-11-12T16:39:58.702Z,13.20
2022-11-12T16:42:46.112Z,13.20
2022-11-12T17:11:50.265Z,12.82
2022-11-12T17:14:36.444Z,12.85
2022-11-12T17:17:23.008Z,12.76
2022-11-12T17:20:11.157Z,12.74
2022-11-12T17:23:00.867Z,12.70
2022-11-12T17:25:47.472Z,12.58
2022-11-12T17:28:34.291Z,12.53
2022-11-12T17:31:23.199Z,12.50
2022-11-12T17:34:10.368Z,12.43
2022-11-12T17:36:57.377Z,12.41
2022-11-12T17:39:44.766Z,12.40
2022-11-12T17:42:31.032Z,12.39
2022-11-12T17:45:17.971Z,12.38
2022-11-12T17:48:04.380Z,12.30
2022-11-12T17:50:51.667Z,12.27
2022-11-12T17:53:39.830Z,12.25
2022-11-12T17:56:31.828Z,12.25
2022-11-12T17:59:21.908Z,12.22
2022-11-12T18:02:12.894Z,12.25
2022-11-12T18:04:59.083Z,12.36
2022-11-12T18:07:45.870Z,12.53
2022-11-12T18:10:32.632Z,12.46
2022-11-12T18:13:19.209Z,12.40
2022-11-12T18:16:29.309Z,12.41
2022-11-12T18:19:15.947Z,12.35
2022-11-12T18:22:02.961Z,12.27
2022-11-12T18:24:52.056Z,12.33
2022-11-12T18:27:38.599Z,12.33
2022-11-12T18:30:25.191Z,12.34
2022-11-12T18:33:12.528Z,12.33
2022-11-12T18:36:11.744Z,12.34
2022-11-12T18:38:58.113Z,12.30
2022-11-12T18:41:44.466Z,12.26
2022-11-12T18:44:30.753Z,12.21
2022-11-12T18:47:17.352Z,12.29
2022-11-12T18:50:08.379Z,12.27
2022-11-12T18:52:56.833Z,12.22
2022-11-12T18:55:43.577Z,12.23
2022-11-12T18:58:34.886Z,12.28
2022-11-12T19:01:23.784Z,12.23
2022-11-12T19:04:11.551Z,12.18
2022-11-12T19:06:58.092Z,12.20
2022-11-12T19:09:44.346Z,12.12
2022-11-12T19:12:30.698Z,12.03
2022-11-12T19:15:16.978Z,11.90
2022-11-12T19:18:04.282Z,11.91
2022-11-12T19:20:50.482Z,11.90
2022-11-12T19:23:36.804Z,11.86
2022-11-12T19:26:23.998Z,11.80
2022-11-12T19:29:10.615Z,11.78
2022-11-12T19:31:56.830Z,11.85
2022-11-12T19:34:43.722Z,11.93
2022-11-12T19:37:34.152Z,11.84
2022-11-12T19:40:20.967Z,12.05
2022-11-12T19:43:07.386Z,12.23
2022-11-12T19:45:53.572Z,12.34
2022-11-12T19:48:40.114Z,12.38
2022-11-12T19:51:26.418Z,12.39
2022-11-12T19:54:12.718Z,12.42
2022-11-12T19:56:59.429Z,12.52
2022-11-12T19:59:45.808Z,12.47
2022-11-12T20:02:32.222Z,12.46
2022-11-12T20:05:18.822Z,12.54
2022-11-12T20:08:05.156Z,12.61
2022-11-12T20:10:51.536Z,12.60
2022-11-12T20:13:38.195Z,12.61
2022-11-12T20:16:25.928Z,12.67
2022-11-12T20:19:12.531Z,12.57
2022-11-12T20:21:59.140Z,12.56
2022-11-12T20:24:45.575Z,12.25
2022-11-12T20:27:31.899Z,12.12
2022-11-12T20:30:20.291Z,12.16
2022-11-12T20:33:06.771Z,12.38
2022-11-12T20:35:55.165Z,12.38
2022-11-12T20:38:44.272Z,12.07
2022-11-12T20:41:31.604Z,12.26
2022-11-12T20:44:17.913Z,12.25
2022-11-12T20:47:04.493Z,12.16
2022-11-12T20:49:50.886Z,12.06
2022-11-12T20:52:37.086Z,12.03
2022-11-12T20:55:24.415Z,12.14
2022-11-12T20:58:11.167Z,12.30
2022-11-12T21:00:57.439Z,12.13
2022-11-12T21:03:45.006Z,12.16
2022-11-12T21:06:31.506Z,12.22
2022-11-12T21:09:18.913Z,12.25
2022-11-12T21:12:05.296Z,12.34
2022-11-12T21:14:55.004Z,12.38
2022-11-12T21:17:41.464Z,12.38
2022-11-12T21:20:27.760Z,12.34
2022-11-12T21:23:14.169Z,12.39
2022-11-12T21:26:05.837Z,12.44
2022-11-12T21:51:22.573Z,12.33
2022-11-12T21:54:17.441Z,12.34
2022-11-12T21:57:04.777Z,12.29
2022-11-12T22:00:08.166Z,12.35
2022-11-12T22:03:03.097Z,12.36
2022-11-12T22:05:49.381Z,12.37
2022-11-12T22:08:37.795Z,12.41
2022-11-12T22:11:26.099Z,12.39
2022-11-12T22:14:12.425Z,12.20
2022-11-12T22:16:58.940Z,12.19
2022-11-12T22:19:45.275Z,12.22
2022-11-12T22:22:31.935Z,12.33
2022-11-12T22:25:18.754Z,12.35
2022-11-12T22:28:06.189Z,12.33
2022-11-12T22:30:53.173Z,12.30
2022-11-12T22:33:39.722Z,12.07
2022-11-12T22:36:28.689Z,12.22
2022-11-12T22:39:15.445Z,12.27
2022-11-12T22:42:01.678Z,12.20
2022-11-12T22:44:48.024Z,12.14
2022-11-12T22:47:34.373Z,12.15
2022-11-12T22:50:21.221Z,12.09
2022-11-12T22:53:07.514Z,12.09
2022-11-12T22:55:53.882Z,11.96
2022-11-12T22:58:43.074Z,11.93
2022-11-12T23:01:32.887Z,12.09
2022-11-12T23:04:19.587Z,12.24
2022-11-12T23:07:05.955Z,12.21
2022-11-12T23:09:52.333Z,12.27
2022-11-12T23:12:38.541Z,12.20
2022-11-12T23:15:24.728Z,12.23
2022-11-12T23:18:12.010Z,12.25
2022-11-12T23:21:26.140Z,12.23
2022-11-12T23:24:36.673Z,12.28
2022-11-12T23:27:27.284Z,12.25
2022-11-12T23:30:13.571Z,12.19
2022-11-12T23:32:59.863Z,12.13
2022-11-12T23:35:46.969Z,12.07
2022-11-12T23:38:37.048Z,12.03
2022-11-12T23:41:26.116Z,11.95
2022-11-12T23:44:12.786Z,11.89
2022-11-12T23:46:59.308Z,11.79
2022-11-12T23:49:45.553Z,11.91
2022-11-12T23:52:33.134Z,11.93
2022-11-12T23:55:19.926Z,11.92
2022-11-12T23:58:06.915Z,11.88
